地図

経路データ

SID SEASON NUMBER BASIN SUBBASIN NAME ISO_TIME NATURE LAT LON WMO_WIND WMO_PRES WMO_AGENCY TRACK_TYPE DIST2LAND LANDFALL IFLAG USA_AGENCY USA_ATCF_ID USA_LAT USA_LON USA_RECORD USA_STATUS USA_WIND USA_PRES USA_SSHS USA_R34_NE USA_R34_SE USA_R34_SW USA_R34_NW USA_R50_NE USA_R50_SE USA_R50_SW USA_R50_NW USA_R64_NE USA_R64_SE USA_R64_SW USA_R64_NW USA_POCI USA_ROCI USA_RMW USA_EYE TOKYO_LAT TOKYO_LON TOKYO_GRADE TOKYO_WIND TOKYO_PRES TOKYO_R50_DIR TOKYO_R50_LONG TOKYO_R50_SHORT TOKYO_R30_DIR TOKYO_R30_LONG TOKYO_R30_SHORT TOKYO_LAND CMA_LAT CMA_LON CMA_CAT CMA_WIND CMA_PRES HKO_LAT HKO_LON HKO_CAT HKO_WIND HKO_PRES NEWDELHI_LAT NEWDELHI_LON NEWDELHI_GRADE NEWDELHI_WIND NEWDELHI_PRES NEWDELHI_CI NEWDELHI_DP NEWDELHI_POCI REUNION_LAT REUNION_LON REUNION_TYPE REUNION_WIND REUNION_PRES REUNION_TNUM REUNION_CI REUNION_RMW REUNION_R34_NE REUNION_R34_SE REUNION_R34_SW REUNION_R34_NW REUNION_R50_NE REUNION_R50_SE REUNION_R50_SW REUNION_R50_NW REUNION_R64_NE REUNION_R64_SE REUNION_R64_SW REUNION_R64_NW BOM_LAT BOM_LON BOM_TYPE BOM_WIND BOM_PRES BOM_TNUM BOM_CI BOM_RMW BOM_R34_NE BOM_R34_SE BOM_R34_SW BOM_R34_NW BOM_R50_NE BOM_R50_SE BOM_R50_SW BOM_R50_NW BOM_R64_NE BOM_R64_SE BOM_R64_SW BOM_R64_NW BOM_ROCI BOM_POCI BOM_EYE BOM_POS_METHOD BOM_PRES_METHOD NADI_LAT NADI_LON NADI_CAT NADI_WIND NADI_PRES WELLINGTON_LAT WELLINGTON_LON WELLINGTON_WIND WELLINGTON_PRES DS824_LAT DS824_LON DS824_STAGE DS824_WIND DS824_PRES TD9636_LAT TD9636_LON TD9636_STAGE TD9636_WIND TD9636_PRES TD9635_LAT TD9635_LON TD9635_WIND TD9635_PRES TD9635_ROCI NEUMANN_LAT NEUMANN_LON NEUMANN_CLASS NEUMANN_WIND NEUMANN_PRES MLC_LAT MLC_LON MLC_CLASS MLC_WIND MLC_PRES USA_GUST BOM_GUST BOM_GUST_PER REUNION_GUST REUNION_GUST_PER USA_SEAHGT USA_SEARAD_NE USA_SEARAD_SE USA_SEARAD_SW USA_SEARAD_NW STORM_SPEED STORM_DIR
1949159N20088 1949 35 NI BB NOT_NAMED 1949-06-07 18:00:00 TS 20.0000 88.1000 main 138 115 O________O____ jtwc_io IO051949 20.0000 88.1000 -1 20.0000 88.1000 TC 4 299
1949159N20088 1949 35 NI BB NOT_NAMED 1949-06-07 21:00:00 TS 20.1000 87.9025 main 115 91 P________P____ IO051949 20.1000 87.9025 -1 20.1000 87.9025 TC 4 298
1949159N20088 1949 35 NI BB NOT_NAMED 1949-06-08 00:00:00 TS 20.2000 87.7000 main 91 68 O________O____ jtwc_io IO051949 20.2000 87.7000 -1 20.2000 87.7000 TC 25 4 297
1949159N20088 1949 35 NI BB NOT_NAMED 1949-06-08 03:00:00 TS 20.3000 87.4933 main 68 45 P________PO___ IO051949 20.3000 87.4925 -1 20.3000 87.4925 TC 25 20.3000 87.5000 1 4 298
1949159N20088 1949 35 NI BB NOT_NAMED 1949-06-08 06:00:00 TS 20.3972 87.3056 main 45 30 O________OP___ jtwc_io IO051949 20.4000 87.3000 -1 20.4000 87.3000 TC 25 20.3860 87.3281 1 4 301
1949159N20088 1949 35 NI BB NOT_NAMED 1949-06-08 09:00:00 TS 20.4938 87.1513 main 30 10 P________PP___ IO051949 20.4999 87.1500 -1 20.4999 87.1500 TC 25 20.4776 87.1550 1 4 304
1949159N20088 1949 35 NI BB NOT_NAMED 1949-06-08 12:00:00 TS 20.5934 86.9931 main 10 0 O________OP___ jtwc_io IO051949 20.6000 87.0000 -1 20.6000 87.0000 TC 25 20.5803 86.9793 1 4 301
1949159N20088 1949 35 NI BB NOT_NAMED 1949-06-08 15:00:00 TS 20.6950 86.8000 main 0 0 P________PO___ IO051949 20.6925 86.8000 -1 20.6925 86.8000 TC 25 20.7000 86.8000 1 4 301
1949159N20088 1949 35 NI BB NOT_NAMED 1949-06-08 18:00:00 TS 20.8127 86.6062 main 0 0 O________OP___ jtwc_io IO051949 20.8000 86.6000 -1 20.8000 86.6000 TC 25 20.8382 86.6186 1 4 308
1949159N20088 1949 35 NI BB NOT_NAMED 1949-06-08 21:00:00 TS 20.9650 86.4343 main 0 0 P________PP___ IO051949 20.9575 86.4275 -1 20.9575 86.4275 TC 25 20.9801 86.4477 1 4 315
1949159N20088 1949 35 NI BB NOT_NAMED 1949-06-09 00:00:00 TS 21.1023 86.3010 main 0 0 O________OP___ jtwc_io IO051949 21.1000 86.3000 -1 21.1000 86.3000 TC 25 21.1069 86.3030 1 3 317
1949159N20088 1949 35 NI BB NOT_NAMED 1949-06-09 03:00:00 TS 21.1817 86.2183 main 0 0 P________PO___ IO051949 21.1725 86.2275 -1 21.1725 86.2275 TC 25 21.2000 86.2000 1 2 316
1949159N20088 1949 35 NI BB NOT_NAMED 1949-06-09 06:00:00 TS 21.2120 86.1856 main 0 0 O________OP___ jtwc_io IO051949 21.2000 86.2000 -1 21.2000 86.2000 TC 25 21.2359 86.1567 1 1 310
1949159N20088 1949 35 NI BB NOT_NAMED 1949-06-09 09:00:00 TS 21.2175 86.1799 main 0 0 P________PP___ IO051949 21.2075 86.1925 -1 21.2075 86.1925 TC 25 21.2374 86.1548 1 0 0
1949159N20088 1949 35 NI BB NOT_NAMED 1949-06-09 12:00:00 TS 21.2068 86.1918 main 0 0 O________OP___ jtwc_io IO051949 21.2000 86.2000 -1 21.2000 86.2000 TC 25 21.2203 86.1755 1 0 0
1949159N20088 1949 35 NI BB NOT_NAMED 1949-06-09 15:00:00 TS 21.2000 86.2000 main 0 0 P________PO___ IO051949 21.2000 86.2000 -1 21.2000 86.2000 TC 25 21.2000 86.2000 1 0 0
1949159N20088 1949 35 NI BB NOT_NAMED 1949-06-09 18:00:00 TS 21.2000 86.2000 main 0 0 O________OP___ jtwc_io IO051949 21.2000 86.2000 -1 21.2000 86.2000 TC 25 21.2000 86.2000 1 0 0
1949159N20088 1949 35 NI BB NOT_NAMED 1949-06-09 21:00:00 TS 21.2000 86.2000 main 0 0 P________PP___ IO051949 21.2000 86.2000 -1 21.2000 86.2000 TC 25 21.2000 86.2000 1 0 0
1949159N20088 1949 35 NI BB NOT_NAMED 1949-06-10 00:00:00 TS 21.2000 86.2000 main 0 0 O________OP___ jtwc_io IO051949 21.2000 86.2000 -1 21.2000 86.2000 TC 25 21.2000 86.2000 1 0 0
1949159N20088 1949 35 NI BB NOT_NAMED 1949-06-10 03:00:00 TS 21.2000 86.2000 main 0 0 P________PO___ IO051949 21.2000 86.2000 -1 21.2000 86.2000 TC 25 21.2000 86.2000 1 0 0
1949159N20088 1949 35 NI BB NOT_NAMED 1949-06-10 06:00:00 TS 21.2000 86.2000 main 0 0 O________OP___ jtwc_io IO051949 21.2000 86.2000 -1 21.2000 86.2000 TC 25 21.2000 86.2000 1 0 0
1949159N20088 1949 35 NI BB NOT_NAMED 1949-06-10 09:00:00 TS 21.2000 86.2000 main 0 0 P________PP___ IO051949 21.2000 86.2000 -1 21.2000 86.2000 TC 25 21.2000 86.2000 1 0 0
1949159N20088 1949 35 NI BB NOT_NAMED 1949-06-10 12:00:00 TS 21.2000 86.2000 main 0 0 O________OP___ jtwc_io IO051949 21.2000 86.2000 -1 21.2000 86.2000 TC 25 21.2000 86.2000 1 0 0
1949159N20088 1949 35 NI BB NOT_NAMED 1949-06-10 15:00:00 TS 21.2000 86.2000 main 0 0 P________PO___ IO051949 21.2000 86.2000 -1 21.2000 86.2000 TC 25 21.2000 86.2000 1 0 0
1949159N20088 1949 35 NI BB NOT_NAMED 1949-06-10 18:00:00 TS 21.2000 86.2000 main 0 0 O________OP___ jtwc_io IO051949 21.2000 86.2000 -1 21.2000 86.2000 TC 25 21.2000 86.2000 1 0 0
1949159N20088 1949 35 NI BB NOT_NAMED 1949-06-10 21:00:00 TS 21.2000 86.2000 main 0 0 P________PP___ IO051949 21.2000 86.2000 -1 21.2000 86.2000 TC 25 21.2000 86.2000 1 0 0
1949159N20088 1949 35 NI BB NOT_NAMED 1949-06-11 00:00:00 TS 21.2000 86.2000 main 0 0 O________OP___ jtwc_io IO051949 21.2000 86.2000 -1 21.2000 86.2000 TC 25 21.2000 86.2000 1 0 0
1949159N20088 1949 35 NI BB NOT_NAMED 1949-06-11 03:00:00 TS 21.2000 86.2000 main 0 0 P________PO___ IO051949 21.2000 86.2000 -1 21.2000 86.2000 TC 25 21.2000 86.2000 1 0 0
1949159N20088 1949 35 NI BB NOT_NAMED 1949-06-11 06:00:00 TS 21.2000 86.2000 main 0 0 O________OP___ jtwc_io IO051949 21.2000 86.2000 -1 21.2000 86.2000 TC 25 21.2000 86.2000 1 0 0
1949159N20088 1949 35 NI BB NOT_NAMED 1949-06-11 09:00:00 TS 21.2000 86.2000 main 0 0 P________PP___ IO051949 21.2000 86.2000 -1 21.2000 86.2000 TC 25 21.2000 86.2000 1 0 0
1949159N20088 1949 35 NI BB NOT_NAMED 1949-06-11 12:00:00 TS 21.2000 86.2000 main 0 0 O________OP___ jtwc_io IO051949 21.2000 86.2000 -1 21.2000 86.2000 TC 25 21.2000 86.2000 1 0 0
1949159N20088 1949 35 NI BB NOT_NAMED 1949-06-11 15:00:00 TS 21.2000 86.2000 main 0 0 P________PO___ IO051949 21.2000 86.2000 -1 21.2000 86.2000 TC 25 21.2000 86.2000 1 0 0
1949159N20088 1949 35 NI BB NOT_NAMED 1949-06-11 18:00:00 TS 21.2000 86.2000 main 0 0 O________OP___ jtwc_io IO051949 21.2000 86.2000 -1 21.2000 86.2000 TC 25 21.2000 86.2000 1 0 0
1949159N20088 1949 35 NI BB NOT_NAMED 1949-06-11 21:00:00 TS 21.2000 86.2000 main 0 0 P________PP___ IO051949 21.2000 86.2000 -1 21.2000 86.2000 TC 25 21.2000 86.2000 1 0 0
1949159N20088 1949 35 NI BB NOT_NAMED 1949-06-12 00:00:00 TS 21.2000 86.2000 main 0 0 O________OP___ jtwc_io IO051949 21.2000 86.2000 -1 21.2000 86.2000 TC 25 21.2000 86.2000 1 0 0
1949159N20088 1949 35 NI BB NOT_NAMED 1949-06-12 03:00:00 TS 21.2000 86.2000 main 0 0 P________PO___ IO051949 21.2000 86.2000 -1 21.2000 86.2000 TC 25 21.2000 86.2000 1 0 0
1949159N20088 1949 35 NI BB NOT_NAMED 1949-06-12 06:00:00 TS 21.2000 86.2000 main 0 0 O________OP___ jtwc_io IO051949 21.2000 86.2000 -1 21.2000 86.2000 TC 25 21.2000 86.2000 1 0 0
1949159N20088 1949 35 NI BB NOT_NAMED 1949-06-12 09:00:00 TS 21.2000 86.2000 main 0 0 P________PP___ IO051949 21.2000 86.2000 -1 21.2000 86.2000 TC 25 21.2000 86.2000 1 0 0
1949159N20088 1949 35 NI BB NOT_NAMED 1949-06-12 12:00:00 TS 21.2000 86.2000 main 0 0 O________OP___ jtwc_io IO051949 21.2000 86.2000 -1 21.2000 86.2000 TC 25 21.2000 86.2000 1 0 0
1949159N20088 1949 35 NI BB NOT_NAMED 1949-06-12 15:00:00 TS 21.2000 86.2000 main 0 0 P________PO___ IO051949 21.2000 86.2000 -1 21.2000 86.2000 TC 25 21.2000 86.2000 1 0 0
1949159N20088 1949 35 NI BB NOT_NAMED 1949-06-12 18:00:00 TS 21.1797 86.1986 main 0 0 O________OP___ jtwc_io IO051949 21.2000 86.2000 -1 21.2000 86.2000 TC 25 21.1391 86.1960 1 0 0
1949159N20088 1949 35 NI BB NOT_NAMED 1949-06-12 21:00:00 TS 21.1525 86.1975 main 0 0 P________PP___ IO051949 21.1850 86.2000 -1 21.1850 86.2000 TC 25 21.0875 86.1926 1 0 0
1949159N20088 1949 35 NI BB NOT_NAMED 1949-06-13 00:00:00 TS 21.1641 86.1976 main 0 0 O________OP___ jtwc_io IO051949 21.2000 86.2000 -1 21.2000 86.2000 TC 25 21.0922 86.1929 1 1 0
1949159N20088 1949 35 NI BB NOT_NAMED 1949-06-13 03:00:00 TS 21.2217 86.1950 main 0 0 P________PO___ IO051949 21.2325 86.1926 -1 21.2325 86.1926 TC 25 21.2000 86.2000 1 3 0
1949159N20088 1949 35 NI BB NOT_NAMED 1949-06-13 06:00:00 TS 21.4237 86.1966 main 0 0 O________OP___ jtwc_io IO051949 21.4000 86.2000 -1 21.4000 86.2000 TC 25 21.4712 86.1898 1 6 3
1949159N20088 1949 35 NI BB NOT_NAMED 1949-06-13 09:00:00 TS 21.8183 86.2252 main 0 0 P________PP___ IO051949 21.8050 86.2424 -1 21.8050 86.2424 TC 25 21.8449 86.1908 1 9 5
1949159N20088 1949 35 NI BB NOT_NAMED 1949-06-13 12:00:00 TS 22.2904 86.2737 main 0 0 O________OP___ jtwc_io IO051949 22.3000 86.3000 -1 22.3000 86.3000 TC 25 22.2711 86.2212 1 9 6
1949159N20088 1949 35 NI BB NOT_NAMED 1949-06-13 15:00:00 TS 22.7100 86.3185 main 0 0 P________PO___ IO051949 22.7150 86.3277 -1 22.7150 86.3277 TC 25 22.7000 86.3000 1 8 9
1949159N20088 1949 35 NI BB NOT_NAMED 1949-06-13 18:00:00 TS 23.0967 86.4160 main 0 0 O________OP___ jtwc_io IO051949 23.1000 86.4000 -1 23.1000 86.4000 TC 25 23.0918 86.4401 1 8 19
1949159N20088 1949 35 NI BB NOT_NAMED 1949-06-13 21:00:00 TS 23.4534 86.5960 main 0 0 P________PP___ IO051949 23.4576 86.5696 -1 23.4576 86.5696 TC 25 23.4479 86.6311 1 8 29
1949159N20088 1949 35 NI BB NOT_NAMED 1949-06-14 00:00:00 TS 23.7900 86.8283 main 0 0 O________OP___ jtwc_io IO051949 23.8000 86.8000 -1 23.8000 86.8000 TC 25 23.7801 86.8566 1 8 36
1949159N20088 1949 35 NI BB NOT_NAMED 1949-06-14 03:00:00 NR 24.1000 87.1000 main 0 __________O___ IO051949 -1 TC 24.1000 87.1000 1 8 38

IBTrACS Databaseについて

本データベースは、米国NOAAが公開する1842年以降の世界の熱帯低気圧のベストトラックデータアーカイブInternational Best Track Archive for Climate Stewardship (IBTrACS)を、ウェブで閲覧しやすい形式に変換したものです。

最終更新日:2021-10-08